Latest Weather Observations for Holmes Reef

IDQ60801

Issued at 6:32 am EST Thursday 29 September 2016 (issued every 30 minutes, with the page automatically refreshed every 10 minutes)

About weather observations | Map of weather stations | Latest weather observations for QLD | Other Formats
Station Details ID: 200732 Name: HOLMES REEF Lat: -16.47 Lon: 147.87 Height: 1.9 m
Data from the previous 72 hours. | See also: Recent months at Holmes Reef
Date/Time
EST
Temp
°C
App
Temp
°C
Dew
Point
°C
Rel
Hum
%
Delta-T
°C
Wind Press
QNH
hPa
Press
MSL
hPa
Rain since
9am
mm
Dir  Spd
km/h
Gust
km/h
Spd
kts
Gust
kts
29/06:30am 25.5 - - - - ENE 17 22 9 12 1011.5 - -
29/06:15am 25.4 - - - - NE 19 20 10 11 1011.3 1011.0 -
29/06:00am 25.2 - - - - NE 19 24 10 13 1011.0 - -
29/05:30am 25.3 - - - - ENE 19 22 10 12 1010.7 - -
29/05:15am 25.4 - - - - NE 20 - 11 - - 1010.2 -
29/05:00am 25.3 - - - - NE 24 28 13 15 1010.3 - -
29/04:30am 25.3 - - - - NE 22 26 12 14 1010.2 - -
29/04:15am 25.4 - - - - NE 20 - 11 - - 1010.0 -
29/04:00am 25.5 - - - - NE 20 24 11 13 1010.3 - -
29/03:30am 25.4 - - - - NE 19 22 10 12 1010.5 - -
29/03:15am 25.5 - - - - NE 20 - 11 - - 1010.0 -
29/03:00am 25.5 - - - - ENE 20 24 11 13 1010.4 - -
29/02:30am 25.4 - - - - NE 22 26 12 14 1010.6 - -
29/02:15am 25.4 - - - - ENE 22 - 12 - - 1010.4 -
29/02:00am 25.4 - - - - NE 22 28 12 15 1010.7 - -
29/01:30am 25.6 - - - - NE 24 28 13 15 1011.1 - -
29/01:15am 25.6 - - - - NE 24 - 13 - - 1010.9 -
29/01:00am 25.6 - - - - NE 24 28 13 15 1011.5 - -
29/12:30am 25.5 - - - - NE 28 32 15 17 1011.7 - -
29/12:15am 25.5 - - - - NE 30 - 16 - - 1011.5 -
29/12:00am 25.5 - - - - ENE 28 33 15 18 1012.1 - -
 
Date/Time
EST
Temp
°C
App
Temp
°C
Dew
Point
°C
Rel
Hum
%
Delta-T
°C
Wind Press
QNH
hPa
Press
MSL
hPa
Rain since
9am
mm
Dir  Spd
km/h
Gust
km/h
Spd
kts
Gust
kts
28/11:30pm 25.6 - - - - ENE 30 32 16 17 1012.2 - -
28/11:15pm 25.8 - - - - ENE 30 - 16 - - 1012.0 -
28/11:00pm 25.6 - - - - ENE 28 32 15 17 1012.5 - -
28/10:30pm 25.7 - - - - ENE 28 32 15 17 1012.6 - -
28/10:15pm 25.9 - - - - ENE 28 - 15 - - 1012.3 -
28/10:00pm 25.7 - - - - ENE 28 32 15 17 1012.6 - -
28/09:30pm 25.7 - - - - ENE 28 33 15 18 1012.2 - -
28/09:15pm 25.9 - - - - ENE 28 - 15 - - 1011.8 -
28/09:00pm 25.8 - - - - ENE 28 32 15 17 1012.0 - -
28/08:30pm 25.9 - - - - ENE 26 30 14 16 1011.8 - -
28/08:15pm 25.9 - - - - E 24 - 13 - - 1011.5 -
28/08:00pm 26.0 - - - - E 20 24 11 13 1011.7 - -
28/07:30pm 25.8 - - - - E 22 24 12 13 1011.7 - -
28/07:15pm 25.9 - - - - E 20 - 11 - - 1011.4 -
28/07:00pm 26.0 - - - - E 19 24 10 13 1011.6 - -
28/06:30pm 26.2 - - - - E 19 20 10 11 1011.3 - -
28/06:15pm 25.9 - - - - E 19 - 10 - - 1011.0 -
28/06:00pm 26.0 - - - - E 19 20 10 11 1011.2 - -
28/05:30pm 26.2 - - - - E 19 22 10 12 1010.8 - -
28/05:15pm 26.0 - - - - E 17 - 9 - - 1010.3 -
28/05:00pm 26.1 - - - - E 17 20 9 11 1010.6 - -
28/04:30pm 26.1 - - - - E 19 20 10 11 1010.4 - -
28/04:15pm 26.1 - - - - E 19 - 10 - - 1010.0 -
28/04:00pm 26.3 - - - - ESE 19 20 10 11 1010.3 - -
28/03:30pm 26.1 - - - - ESE 19 22 10 12 1010.4 - -
28/03:15pm 26.2 - - - - ESE 19 - 10 - - 1010.1 -
28/03:00pm 26.2 - - - - E 19 22 10 12 1010.5 - -
28/02:30pm 26.2 - - - - E 20 22 11 12 1010.7 - -
28/02:15pm 26.1 - - - - E 19 - 10 - - 1010.4 -
28/02:00pm 26.0 - - - - E 19 20 10 11 1010.8 - -
28/01:30pm 26.1 - - - - E 19 20 10 11 1011.2 - -
28/01:15pm 26.1 - - - - E 19 - 10 - - 1011.2 -
28/01:00pm 26.1 - - - - E 17 20 9 11 1011.8 - -
28/12:30pm 26.2 - - - - E 17 20 9 11 1012.3 - -
28/12:15pm 26.2 - - - - E 17 - 9 - - 1012.3 -
28/12:00pm 26.2 - - - - E 17 20 9 11 1012.9 - -
28/11:30am 26.1 - - - - E 17 20 9 11 1013.4 - -
28/11:15am 26.1 - - - - E 19 - 10 - - 1013.3 -
28/11:00am 26.1 - - - - ESE 19 22 10 12 1013.7 - -
28/10:30am 26.3 - - - - ESE 15 19 8 10 1013.9 - -
28/10:15am 26.3 - - - - E 17 - 9 - - 1013.7 -
28/10:00am 26.3 - - - - E 17 20 9 11 1014.1 - -
28/09:30am 26.1 - - - - ESE 19 24 10 13 1014.0 - -
28/09:15am 26.1 - - - - E 19 - 10 - - 1013.7 -
28/09:00am 26.2 - - - - E 17 20 9 11 1013.9 - -
28/08:30am 26.4 - - - - E 17 20 9 11 1013.9 - -
28/08:15am 26.3 - - - - E 17 - 9 - - 1013.4 -
28/08:00am 26.3 - - - - E 17 20 9 11 1013.5 - -
28/07:30am 26.4 - - - - NE 17 20 9 11 1012.9 - -
28/07:15am 26.1 - - - - ENE 20 - 11 - - 1012.6 -
28/07:00am 26.0 - - - - ENE 19 22 10 12 1012.7 - -
28/06:30am 25.8 - - - - E 20 22 11 12 1012.5 - -
28/06:15am 25.9 - - - - E 20 - 11 - - 1012.0 -
28/06:00am 25.6 - - - - E 20 22 11 12 1012.0 - -
28/05:30am 25.6 - - - - E 20 24 11 13 1011.9 - -
28/05:15am 25.7 - - - - E 22 - 12 - - 1011.4 -
28/05:00am 25.6 - - - - ENE 22 24 12 13 1011.5 - -
28/04:30am 25.7 - - - - E 20 24 11 13 1011.3 - -
28/04:15am 25.7 - - - - ENE 22 - 12 - - 1010.8 -
28/04:00am 25.7 - - - - ENE 26 32 14 17 1010.9 - -
28/03:30am 25.7 - - - - ENE 30 33 16 18 1010.7 - -
28/03:15am 25.7 - - - - ENE 32 - 17 - - 1010.3 -
28/03:00am 25.7 - - - - ENE 30 35 16 19 1010.8 - -
28/02:30am 25.6 - - - - E 30 33 16 18 1011.1 - -
28/02:15am 25.6 - - - - ENE 32 - 17 - - 1010.8 -
28/02:00am 25.8 - - - - ENE 32 35 17 19 1011.1 - -
28/01:30am 25.8 - - - - E 32 35 17 19 1011.6 - -
28/01:15am 25.7 - - - - E 32 - 17 - - 1011.6 -
28/01:00am 25.8 - - - - E 30 35 16 19 1012.1 - -
28/12:30am 26.0 - - - - E 32 37 17 20 1012.4 - -
28/12:15am 26.1 - - - - E 32 - 17 - - 1012.2 -
28/12:00am 25.8 - - - - E 32 35 17 19 1012.8 - -
 
Date/Time
EST
Temp
°C
App
Temp
°C
Dew
Point
°C
Rel
Hum
%
Delta-T
°C
Wind Press
QNH
hPa
Press
MSL
hPa
Rain since
9am
mm
Dir  Spd
km/h
Gust
km/h
Spd
kts
Gust
kts
27/11:30pm 26.0 - - - - E 32 35 17 19 1012.8 - -
27/11:15pm 26.0 - - - - E 33 - 18 - - 1012.6 -
27/11:00pm 26.1 - - - - E 32 35 17 19 1013.0 - -
27/10:30pm 26.0 - - - - E 30 33 16 18 1013.0 - -
27/10:15pm 26.1 - - - - E 30 - 16 - - 1012.9 -
27/10:00pm 26.1 - - - - E 30 33 16 18 1013.2 - -
27/09:30pm 26.1 - - - - E 30 35 16 19 1013.1 - -
27/09:15pm 26.1 - - - - E 30 - 16 - - 1012.7 -
27/09:00pm 26.3 - - - - E 30 32 16 17 1013.0 - -
27/08:30pm 26.4 - - - - ESE 28 30 15 16 1013.0 - -
27/08:15pm 26.5 - - - - ESE 26 - 14 - - 1012.6 -
27/08:00pm 26.2 - - - - ESE 26 30 14 16 1012.6 - -
27/07:30pm 26.3 - - - - ESE 26 32 14 17 1012.4 - -
27/07:15pm 26.2 - - - - ESE 26 - 14 - - 1012.0 -
27/07:00pm 26.3 - - - - SE 28 32 15 17 1012.3 - -
27/06:30pm 26.3 - - - - ESE 26 30 14 16 1011.9 - -
27/06:15pm 26.4 - - - - SE 24 - 13 - - 1011.5 -
27/06:00pm 26.4 - - - - SE 24 28 13 15 1011.6 - -
27/05:30pm 26.4 - - - - SE 24 28 13 15 1011.3 - -
27/05:15pm 26.4 - - - - SE 24 - 13 - - 1010.8 -
27/05:00pm 26.4 - - - - SSE 22 26 12 14 1011.1 - -
27/04:30pm 26.3 - - - - SE 17 20 9 11 1010.8 - -
27/04:15pm 26.5 - - - - SSE 20 - 11 - - 1010.5 -
27/04:00pm 26.4 - - - - SE 17 20 9 11 1010.7 - -
27/03:30pm 26.3 - - - - SE 17 20 9 11 1010.4 - -
27/03:15pm 26.5 - - - - SSE 17 - 9 - - 1010.2 -
27/03:00pm 26.4 - - - - SE 15 20 8 11 1010.7 - -
27/02:30pm 26.5 - - - - SE 15 19 8 10 1010.9 - -
27/02:15pm 26.3 - - - - SE 13 - 7 - - 1010.7 -
27/02:00pm 26.3 - - - - SE 13 15 7 8 1011.2 - -
27/01:30pm 26.4 - - - - SE 15 17 8 9 1011.7 - -
27/01:15pm 26.5 - - - - SE 13 - 7 - - 1011.6 -
27/01:00pm 26.3 - - - - SE 13 15 7 8 1011.9 - -
27/12:30pm 26.2 - - - - SE 15 17 8 9 1012.3 - -
27/12:15pm 26.3 - - - - SE 15 - 8 - - 1012.3 -
27/12:00pm 26.0 - - - - ESE 15 17 8 9 1012.9 - -
27/11:30am 26.2 - - - - ESE 15 17 8 9 1013.2 - -
27/11:15am 26.2 - - - - SE 15 - 8 - - 1013.1 -
27/11:00am 26.1 - - - - SE 17 19 9 10 1013.6 - -
27/10:30am 26.2 - - - - SE 17 17 9 9 1014.1 - -
27/10:15am 26.3 - - - - SE 17 - 9 - - 1014.1 -
27/10:00am 26.6 - - - - SSE 17 20 9 11 1014.5 - -
27/09:30am 26.6 - - - - SSE 19 22 10 12 1014.9 - -
27/09:15am 26.8 - - - - SSE 19 - 10 - - 1014.6 -
27/09:00am 26.5 - - - - SSE 15 17 8 9 1014.9 - -
27/08:30am 26.1 - - - - SE 13 15 7 8 1014.6 - -
27/08:15am 26.2 - - - - SE 11 - 6 - - 1013.9 -
27/08:00am 26.2 - - - - SE 11 13 6 7 1014.1 - -
27/07:30am 26.2 - - - - SE 11 15 6 8 1014.0 - -
27/07:15am 26.2 - - - - SE 13 - 7 - - 1013.4 -
27/07:00am 26.2 - - - - SE 9 11 5 6 1013.5 - -
27/06:30am 26.1 - - - - SE 7 11 4 6 1013.2 - -
27/06:15am 25.8 - - - - SE 9 - 5 - - 1012.8 -
27/06:00am 25.6 - - - - SE 7 9 4 5 1012.9 - -
27/05:30am 25.7 - - - - SE 7 7 4 4 1012.7 - -
27/05:15am 25.6 - - - - ESE 7 - 4 - - 1012.2 -
27/05:00am 25.8 - - - - ENE 11 15 6 8 1012.2 - -
27/04:30am 25.6 - - - - NE 15 17 8 9 1012.1 - -
27/04:15am 25.7 - - - - NE 20 - 11 - - 1011.5 -
27/04:00am 25.6 - - - - NNE 24 26 13 14 1011.4 - -
27/03:30am 25.6 - - - - NE 24 26 13 14 1011.5 - -
27/03:15am 25.8 - - - - NE 24 - 13 - - 1011.2 -
27/03:00am 25.7 - - - - NNE 24 28 13 15 1011.5 - -
27/02:30am 25.7 - - - - NE 26 30 14 16 1011.8 - -
27/02:15am 25.7 - - - - NE 28 - 15 - - 1011.4 -
27/02:00am 25.7 - - - - NE 30 33 16 18 1011.7 - -
27/01:30am 25.9 - - - - NE 32 35 17 19 1011.7 - -
27/01:15am 25.8 - - - - NE 28 - 15 - - 1011.8 -
27/01:00am 25.8 - - - - NE 26 28 14 15 1012.5 - -
27/12:30am 26.1 - - - - ENE 22 26 12 14 1013.0 - -
27/12:15am 25.9 - - - - ENE 20 - 11 - - 1013.1 -
27/12:00am 25.9 - - - - ENE 20 22 11 12 1013.6 - -
 
Date/Time
EST
Temp
°C
App
Temp
°C
Dew
Point
°C
Rel
Hum
%
Delta-T
°C
Wind Press
QNH
hPa
Press
MSL
hPa
Rain since
9am
mm
Dir  Spd
km/h
Gust
km/h
Spd
kts
Gust
kts
26/11:30pm 26.0 - - - - ENE 22 26 12 14 1013.7 - -
26/11:15pm 25.9 - - - - ENE 22 - 12 - - 1013.3 -
26/11:00pm 26.0 - - - - ENE 22 26 12 14 1013.6 - -
26/10:30pm 26.0 - - - - ENE 20 24 11 13 1013.8 - -
26/10:15pm 25.9 - - - - ENE 20 - 11 - - 1013.5 -
26/10:00pm 26.0 - - - - ENE 19 20 10 11 1013.6 - -
26/09:30pm 25.9 - - - - ENE 20 22 11 12 1013.5 - -
26/09:15pm 26.0 - - - - ENE 20 - 11 - - 1013.2 -
26/09:00pm 25.9 - - - - ENE 19 22 10 12 1013.4 - -
26/08:30pm 26.0 - - - - E 19 22 10 12 1013.4 - -
26/08:15pm 26.0 - - - - E 20 - 11 - - 1012.7 -
26/08:00pm 26.0 - - - - E 20 22 11 12 1012.8 - -
26/07:30pm 26.1 - - - - E 17 19 9 10 1012.5 - -
26/07:15pm 26.1 - - - - E 15 - 8 - - 1012.1 -
26/07:00pm 26.2 - - - - E 13 15 7 8 1012.4 - -
26/06:30pm 26.1 - - - - E 13 17 7 9 1012.0 - -
26/06:15pm 26.3 - - - - E 11 - 6 - - 1011.5 -
26/06:00pm 26.2 - - - - ESE 11 15 6 8 1011.6 - -
26/05:30pm 26.5 - - - - SE 11 15 6 8 1011.3 - -
26/05:15pm 26.8 - - - - ESE 11 - 6 - - 1010.9 -
26/05:00pm 26.7 - - - - ESE 11 13 6 7 1011.1 - -
26/04:30pm 26.7 - - - - ESE 11 13 6 7 1010.8 - -
26/04:15pm 26.6 - - - - E 9 - 5 - - 1010.5 -
26/04:00pm 26.7 - - - - ESE 9 11 5 6 1010.7 - -
26/03:30pm 26.8 - - - - ESE 11 13 6 7 1010.7 - -
26/03:15pm 26.7 - - - - ESE 9 - 5 - - 1010.4 -
26/03:00pm 27.0 - - - - SE 9 13 5 7 1010.8 - -
26/02:30pm 26.6 - - - - SE 9 11 5 6 1010.8 - -
26/02:15pm 26.5 - - - - SE 11 - 6 - - 1010.6 -
26/02:00pm 26.5 - - - - ESE 11 13 6 7 1011.0 - -
26/01:30pm 26.4 - - - - ESE 11 13 6 7 1011.0 - -
26/01:15pm 26.5 - - - - E 11 - 6 - - 1010.8 -
26/01:00pm 26.2 - - - - E 11 13 6 7 1011.3 - -
26/12:30pm 26.4 - - - - ESE 13 13 7 7 1011.6 - -
26/12:15pm 26.2 - - - - ESE 13 - 7 - - 1011.6 -
26/12:00pm 26.5 - - - - ESE 13 15 7 8 1012.1 - -
26/11:30am 26.7 - - - - ESE 9 13 5 7 1012.6 - -
26/11:15am 27.0 - - - - SSE 9 - 5 - - 1012.6 -
26/11:00am 27.1 - - - - SSE 11 13 6 7 1013.1 - -
26/10:30am 27.1 - - - - SSE 11 13 6 7 1013.3 - -
26/10:15am 27.2 - - - - SSE 11 - 6 - - 1013.0 -
26/09:30am 27.1 - - - - CALM 0 2 0 1 1013.5 - -
26/09:15am 26.8 - - - - CALM 0 - 0 - - 1013.3 -
26/09:00am 26.6 - - - - CALM 0 2 0 1 1013.6 - -
26/08:30am 26.4 - - - - CALM 0 6 0 3 1013.4 - -
26/08:15am 26.6 - - - - CALM 0 - 0 - - 1013.2 -
26/08:00am 26.5 - - - - CALM 0 4 0 2 1013.4 - -
26/07:30am 27.2 - - - - CALM 0 2 0 1 1013.1 - -
26/07:15am 27.1 - - - - CALM 0 - 0 - - 1012.6 -
26/07:00am 27.0 - - - - CALM 0 4 0 2 1012.6 - -

Other Formats:

Comma delimited format used in spreadsheet applications
http://www.bom.gov.au/fwo/IDQ60801/IDQ60801.94289.axf

JavaScript Object Notation format (JSON) in row-major order
http://www.bom.gov.au/fwo/IDQ60801/IDQ60801.94289.json